createdAt,value
2022-08-30T00:01:36.327Z,2.77
2022-08-30T00:04:08.599Z,2.40
2022-08-30T00:06:42.821Z,3.00
2022-08-30T00:09:12.573Z,2.70
2022-08-30T00:11:42.682Z,2.77
2022-08-30T00:14:11.539Z,2.80
2022-08-30T00:16:43.755Z,2.80
2022-08-30T00:19:13.329Z,2.83
2022-08-30T00:21:43.892Z,2.60
2022-08-30T00:24:13.420Z,2.50
2022-08-30T00:26:43.229Z,2.80
2022-08-30T00:29:15.104Z,2.63
2022-08-30T00:31:45.327Z,2.60
2022-08-30T00:34:17.182Z,2.77
2022-08-30T00:36:53.885Z,2.50
2022-08-30T00:39:24.938Z,2.73
2022-08-30T00:41:54.240Z,2.53
2022-08-30T00:44:24.839Z,2.70
2022-08-30T00:47:01.690Z,2.53
2022-08-30T00:49:35.770Z,2.40
2022-08-30T00:52:06.973Z,2.50
2022-08-30T00:54:39.374Z,2.60
2022-08-30T00:57:11.183Z,2.80
2022-08-30T00:59:41.304Z,2.80
2022-08-30T01:02:15.894Z,2.50
2022-08-30T01:04:49.103Z,2.70
2022-08-30T01:07:18.812Z,2.30
2022-08-30T01:09:48.518Z,2.37
2022-08-30T01:12:18.296Z,2.23
2022-08-30T01:14:50.320Z,2.37
2022-08-30T01:17:23.560Z,2.60
2022-08-30T01:20:02.206Z,2.87
2022-08-30T01:22:38.329Z,2.50
2022-08-30T01:25:11.614Z,2.50
2022-08-30T01:27:47.336Z,2.60
2022-08-30T01:30:16.428Z,2.80
2022-08-30T01:32:52.008Z,2.50
2022-08-30T01:35:21.661Z,2.33
2022-08-30T01:37:51.063Z,2.50
2022-08-30T01:40:23.543Z,2.87
2022-08-30T01:42:57.309Z,2.53
2022-08-30T01:45:29.718Z,2.63
2022-08-30T01:47:59.867Z,2.70
2022-08-30T01:50:34.754Z,2.40
2022-08-30T01:53:05.958Z,2.57
2022-08-30T01:55:39.683Z,2.73
2022-08-30T01:58:10.763Z,2.60
2022-08-30T02:00:43.047Z,2.70
2022-08-30T02:03:12.708Z,2.40
2022-08-30T02:05:42.210Z,2.73
2022-08-30T02:08:11.894Z,2.50
2022-08-30T02:10:46.188Z,2.53
2022-08-30T02:13:15.939Z,2.77
2022-08-30T02:15:45.221Z,2.70
2022-08-30T02:18:16.931Z,2.77
2022-08-30T02:20:45.928Z,2.60
2022-08-30T02:23:15.669Z,2.73
2022-08-30T02:25:47.158Z,3.00
2022-08-30T02:28:15.939Z,2.67
2022-08-30T02:30:49.263Z,2.60
2022-08-30T02:33:22.930Z,2.40
2022-08-30T02:35:54.730Z,2.60
2022-08-30T02:38:26.895Z,2.70
2022-08-30T02:41:01.223Z,2.63
2022-08-30T02:43:30.730Z,2.90
2022-08-30T02:46:00.305Z,2.50
2022-08-30T02:48:32.419Z,2.93
2022-08-30T02:51:09.577Z,2.80
2022-08-30T02:53:40.994Z,2.90
2022-08-30T02:56:15.097Z,3.00
2022-08-30T02:58:48.441Z,2.60
2022-08-30T03:01:19.721Z,3.00
2022-08-30T03:03:48.790Z,3.20
2022-08-30T03:06:19.025Z,3.10
2022-08-30T03:08:48.647Z,3.17
2022-08-30T03:11:23.441Z,3.40
2022-08-30T03:13:53.688Z,3.33
2022-08-30T03:16:23.850Z,3.40
2022-08-30T03:18:56.820Z,3.77
2022-08-30T03:21:26.845Z,3.43
2022-08-30T03:23:56.344Z,3.93
2022-08-30T03:26:27.475Z,4.00
2022-08-30T03:28:58.164Z,3.90
2022-08-30T03:31:27.780Z,3.67
2022-08-30T03:33:57.316Z,3.57
2022-08-30T03:36:26.839Z,3.80
2022-08-30T03:38:56.355Z,4.20
2022-08-30T03:41:29.503Z,3.93
2022-08-30T03:44:00.809Z,4.17
2022-08-30T03:46:34.468Z,3.63
2022-08-30T03:49:11.966Z,3.87
2022-08-30T03:51:41.373Z,4.10
2022-08-30T03:54:11.982Z,4.50
2022-08-30T03:56:43.449Z,4.33
2022-08-30T03:59:13.069Z,4.20
2022-08-30T04:01:48.627Z,4.53
2022-08-30T04:04:21.155Z,4.30
2022-08-30T04:06:53.375Z,4.50
2022-08-30T04:09:26.269Z,4.43
2022-08-30T04:12:04.445Z,4.60
2022-08-30T04:14:35.693Z,4.57
2022-08-30T04:17:11.314Z,5.30
2022-08-30T04:19:43.924Z,4.73
2022-08-30T04:22:13.322Z,4.90
2022-08-30T04:24:43.517Z,5.07
2022-08-30T04:27:20.878Z,4.60
2022-08-30T04:29:56.714Z,4.83
2022-08-30T04:32:43.471Z,4.90
2022-08-30T04:35:18.090Z,5.33
2022-08-30T04:37:47.944Z,5.00
2022-08-30T04:40:19.174Z,4.73
2022-08-30T04:42:54.885Z,4.90
2022-08-30T04:45:32.992Z,4.47
2022-08-30T04:48:10.653Z,5.30
2022-08-30T04:50:42.532Z,4.83
2022-08-30T04:53:23.926Z,5.23
2022-08-30T04:55:57.054Z,5.37
2022-08-30T04:58:30.537Z,5.50
2022-08-30T05:01:14.054Z,5.27
2022-08-30T05:03:46.903Z,4.70
2022-08-30T05:06:36.234Z,5.20
2022-08-30T05:09:37.304Z,5.40
2022-08-30T05:12:12.609Z,4.77
2022-08-30T05:14:48.272Z,5.50
2022-08-30T05:17:29.547Z,5.00
2022-08-30T05:20:02.974Z,5.10
2022-08-30T05:25:47.256Z,4.80
2022-08-30T05:28:26.913Z,4.40
2022-08-30T05:31:01.195Z,4.80
2022-08-30T05:33:49.171Z,4.50
2022-08-30T05:36:44.939Z,4.50
2022-08-30T05:39:21.978Z,4.10
2022-08-30T05:42:00.618Z,4.10
2022-08-30T05:44:47.209Z,4.10
2022-08-30T05:47:57.318Z,3.80
2022-08-30T05:50:44.559Z,3.60
2022-08-30T05:53:32.120Z,3.67
2022-08-30T05:56:13.687Z,3.50
2022-08-30T05:58:49.687Z,3.97
2022-08-30T06:01:42.075Z,3.40
2022-08-30T06:04:15.116Z,3.20
2022-08-30T06:06:48.598Z,3.40
2022-08-30T06:09:20.288Z,3.13
2022-08-30T06:11:51.361Z,3.70
2022-08-30T06:14:20.771Z,3.20
2022-08-30T06:16:49.729Z,3.27
2022-08-30T06:19:21.056Z,3.40
2022-08-30T06:21:52.823Z,3.00
2022-08-30T06:24:41.218Z,3.20
2022-08-30T06:27:15.570Z,3.20
2022-08-30T06:29:45.535Z,2.93
2022-08-30T06:32:17.783Z,3.10
2022-08-30T06:34:53.658Z,3.30
2022-08-30T06:37:29.537Z,3.00
2022-08-30T06:40:00.375Z,2.97
2022-08-30T06:42:34.886Z,3.00
2022-08-30T06:45:10.962Z,2.70
2022-08-30T06:47:51.119Z,2.53
2022-08-30T06:50:28.128Z,2.70
2022-08-30T06:53:00.375Z,2.43
2022-08-30T06:55:33.551Z,2.50
2022-08-30T06:58:03.532Z,2.47
2022-08-30T07:00:33.182Z,2.40
2022-08-30T07:03:05.555Z,2.23
2022-08-30T07:05:37.314Z,2.03
2022-08-30T07:08:06.925Z,1.90
2022-08-30T07:10:41.107Z,2.00
2022-08-30T07:13:20.350Z,1.70
2022-08-30T07:15:49.448Z,1.70
2022-08-30T07:18:36.558Z,2.07
2022-08-30T07:21:18.448Z,1.90
2022-08-30T07:23:53.610Z,1.70
2022-08-30T07:26:28.720Z,2.00
2022-08-30T07:29:02.729Z,1.80
2022-08-30T07:31:37.890Z,2.10
2022-08-30T07:34:11.614Z,2.00
2022-08-30T07:36:42.380Z,1.60
2022-08-30T07:39:21.852Z,1.57
2022-08-30T07:41:52.901Z,1.60
2022-08-30T07:44:25.162Z,1.53
2022-08-30T07:46:54.577Z,1.93
2022-08-30T07:49:28.433Z,1.60
2022-08-30T07:52:02.636Z,1.57
2022-08-30T07:54:34.435Z,1.60
2022-08-30T07:57:03.305Z,1.70
2022-08-30T07:59:41.178Z,1.20
2022-08-30T08:02:10.928Z,1.60
2022-08-30T08:04:40.213Z,1.40
2022-08-30T08:07:11.095Z,1.40
2022-08-30T08:09:40.183Z,1.63
2022-08-30T08:12:09.858Z,1.13
2022-08-30T08:14:42.057Z,1.10
2022-08-30T08:17:19.828Z,1.47
2022-08-30T08:19:52.099Z,1.10
2022-08-30T08:22:26.108Z,1.30
2022-08-30T08:25:04.595Z,1.10
2022-08-30T08:27:34.117Z,1.00
2022-08-30T08:30:06.887Z,1.10
2022-08-30T08:32:43.599Z,0.70
2022-08-30T08:35:26.446Z,0.90
2022-08-30T08:38:02.084Z,0.97
2022-08-30T08:40:35.479Z,0.90
2022-08-30T08:43:12.691Z,1.05
2022-08-30T08:45:53.014Z,0.93
2022-08-30T08:48:51.992Z,0.95
2022-08-30T08:51:47.825Z,1.13
2022-08-30T08:54:32.600Z,1.10
2022-08-30T08:57:11.330Z,0.65
2022-08-30T08:59:54.621Z,0.90
2022-08-30T09:02:34.144Z,0.88
2022-08-30T09:05:12.238Z,0.82
2022-08-30T09:07:50.240Z,0.95
2022-08-30T09:10:47.042Z,0.82
2022-08-30T09:13:19.075Z,1.25
2022-08-30T09:15:55.152Z,1.00
2022-08-30T09:18:45.316Z,1.00
2022-08-30T09:21:19.538Z,0.93
2022-08-30T09:23:52.894Z,0.85
2022-08-30T09:26:36.577Z,0.93
2022-08-30T09:29:18.843Z,0.90
2022-08-30T09:32:10.198Z,1.10
2022-08-30T09:34:45.828Z,1.00
2022-08-30T09:37:49.793Z,1.35
2022-08-30T09:40:27.173Z,1.08
2022-08-30T09:43:07.803Z,1.00
2022-08-30T09:45:40.724Z,0.90
2022-08-30T09:48:31.437Z,1.00
2022-08-30T09:51:35.882Z,1.00
2022-08-30T09:54:18.305Z,1.15
2022-08-30T09:56:55.569Z,0.88
2022-08-30T09:59:41.052Z,1.10
2022-08-30T10:02:35.426Z,1.30
2022-08-30T10:05:16.228Z,1.00
2022-08-30T10:08:05.311Z,1.10
2022-08-30T10:10:48.390Z,0.93
2022-08-30T10:13:51.514Z,0.93
2022-08-30T10:16:37.027Z,1.63
2022-08-30T10:19:20.923Z,0.90
2022-08-30T10:21:56.437Z,1.08
2022-08-30T10:24:33.508Z,0.88
2022-08-30T10:27:10.961Z,0.93
2022-08-30T10:30:03.072Z,1.45
2022-08-30T10:32:54.051Z,1.23
2022-08-30T10:35:36.860Z,1.00
2022-08-30T10:38:13.533Z,1.20
2022-08-30T10:41:07.173Z,0.90
2022-08-30T10:43:51.102Z,1.13
2022-08-30T10:46:34.152Z,1.05
2022-08-30T10:49:27.313Z,1.30
2022-08-30T10:52:20.234Z,1.00
2022-08-30T10:54:56.995Z,0.98
2022-08-30T10:57:32.510Z,0.90
2022-08-30T11:00:11.011Z,1.20
2022-08-30T11:03:25.158Z,1.48
2022-08-30T11:06:25.162Z,1.08
2022-08-30T11:09:15.686Z,1.13
2022-08-30T11:12:09.939Z,1.25
2022-08-30T11:14:46.425Z,1.17
2022-08-30T11:17:34.426Z,1.80
2022-08-30T11:20:29.447Z,1.50
2022-08-30T11:23:26.151Z,1.13
2022-08-30T11:26:03.947Z,1.13
2022-08-30T11:29:09.462Z,1.00
2022-08-30T11:31:54.148Z,1.10
2022-08-30T11:34:59.874Z,1.20
2022-08-30T11:37:52.497Z,1.23
2022-08-30T11:41:12.696Z,1.20
2022-08-30T11:43:59.072Z,1.20
2022-08-30T11:46:39.773Z,0.98
2022-08-30T11:49:38.530Z,1.23
2022-08-30T11:52:29.967Z,1.00
2022-08-30T11:55:30.056Z,1.10
2022-08-30T11:58:30.890Z,1.00
2022-08-30T12:01:50.927Z,1.20
2022-08-30T12:04:36.762Z,0.90
2022-08-30T12:07:12.804Z,1.20
2022-08-30T12:10:19.985Z,1.75
2022-08-30T12:13:00.518Z,1.30
2022-08-30T12:16:03.731Z,0.93
2022-08-30T12:18:41.572Z,1.20
2022-08-30T12:21:43.907Z,1.10
2022-08-30T12:24:45.766Z,1.15
2022-08-30T12:27:33.371Z,1.10
2022-08-30T12:30:10.750Z,1.30
2022-08-30T12:32:56.108Z,1.17
2022-08-30T12:35:29.112Z,1.13
2022-08-30T12:38:09.853Z,1.27
2022-08-30T12:40:40.904Z,1.02
2022-08-30T12:43:27.464Z,1.05
2022-08-30T12:46:39.104Z,1.30
2022-08-30T12:49:13.041Z,1.00
2022-08-30T12:51:45.228Z,1.10
2022-08-30T12:54:32.119Z,1.23
2022-08-30T12:57:25.577Z,1.17
2022-08-30T13:00:02.096Z,1.23
2022-08-30T13:02:53.492Z,1.40
2022-08-30T13:05:52.762Z,1.00
2022-08-30T13:08:29.890Z,1.13
2022-08-30T13:11:15.119Z,1.40
2022-08-30T13:13:53.200Z,1.20
2022-08-30T13:16:45.185Z,1.80
2022-08-30T13:19:42.829Z,2.35
2022-08-30T13:25:29.291Z,6.75
2022-08-30T13:28:07.809Z,3.58
2022-08-30T13:30:40.487Z,3.10
2022-08-30T13:33:23.794Z,2.70
2022-08-30T13:36:00.746Z,6.88
2022-08-30T13:38:48.133Z,3.60
2022-08-30T13:41:18.514Z,2.65
2022-08-30T13:46:54.440Z,1.80
2022-08-30T13:49:45.079Z,2.20
2022-08-30T13:52:21.998Z,2.08
2022-08-30T13:55:04.950Z,2.40
2022-08-30T14:00:37.551Z,1.77
2022-08-30T14:03:17.349Z,1.40
2022-08-30T14:06:29.360Z,2.13
2022-08-30T14:09:03.753Z,1.10
2022-08-30T14:11:39.162Z,1.50
2022-08-30T14:14:37.104Z,1.10
2022-08-30T14:17:17.392Z,1.25
2022-08-30T14:19:50.331Z,1.13
2022-08-30T14:22:32.998Z,1.23
2022-08-30T14:25:14.521Z,1.05
2022-08-30T14:28:04.521Z,1.30
2022-08-30T14:30:40.872Z,1.17
2022-08-30T14:33:18.558Z,1.30
2022-08-30T14:35:59.843Z,1.40
2022-08-30T14:38:41.020Z,1.30
2022-08-30T14:41:15.967Z,1.35
2022-08-30T14:43:49.040Z,1.10
2022-08-30T14:46:36.148Z,1.35
2022-08-30T14:49:27.800Z,1.20
2022-08-30T14:51:57.494Z,1.42
2022-08-30T14:54:39.562Z,1.10
2022-08-30T14:57:13.770Z,1.30
2022-08-30T14:59:59.871Z,1.00
2022-08-30T15:02:35.094Z,1.08
2022-08-30T15:05:19.187Z,1.40
2022-08-30T15:07:56.739Z,1.10
2022-08-30T15:10:36.007Z,1.15
2022-08-30T15:13:13.070Z,0.95
2022-08-30T15:15:48.372Z,1.30
2022-08-30T15:18:23.876Z,1.00
2022-08-30T15:21:04.432Z,1.10
2022-08-30T15:23:48.804Z,1.00
2022-08-30T15:26:23.286Z,0.82
2022-08-30T15:28:56.887Z,1.00
2022-08-30T15:31:36.952Z,1.83
2022-08-30T15:34:19.112Z,1.02
2022-08-30T15:36:54.514Z,1.40
2022-08-30T15:39:32.676Z,0.90
2022-08-30T15:42:08.068Z,1.40
2022-08-30T15:44:41.563Z,1.00
2022-08-30T15:47:13.524Z,0.98
2022-08-30T15:49:45.747Z,1.13
2022-08-30T15:52:18.440Z,1.08
2022-08-30T15:55:14.089Z,1.33
2022-08-30T15:57:48.672Z,1.10
2022-08-30T16:00:29.933Z,1.10
2022-08-30T16:03:04.246Z,1.08
2022-08-30T16:05:36.781Z,1.20
2022-08-30T16:08:10.481Z,1.10
2022-08-30T16:10:43.218Z,1.23
2022-08-30T16:13:22.006Z,1.13
2022-08-30T16:15:56.708Z,1.10
2022-08-30T16:18:35.708Z,1.10
2022-08-30T16:21:19.374Z,1.00
2022-08-30T16:24:00.254Z,1.10
2022-08-30T16:26:37.024Z,1.10
2022-08-30T16:29:14.514Z,1.23
2022-08-30T16:31:58.030Z,0.95
2022-08-30T16:34:33.927Z,1.10
2022-08-30T16:37:14.409Z,1.20
2022-08-30T16:39:48.080Z,0.98
2022-08-30T16:42:21.041Z,1.08
2022-08-30T16:44:57.436Z,1.30
2022-08-30T16:47:36.689Z,1.20
2022-08-30T16:50:23.772Z,1.27
2022-08-30T16:52:54.488Z,1.30
2022-08-30T16:55:46.413Z,1.08
2022-08-30T16:58:31.070Z,1.15
2022-08-30T17:01:02.351Z,1.00
2022-08-30T17:03:40.547Z,1.10
2022-08-30T17:06:16.808Z,1.15
2022-08-30T17:11:33.822Z,1.02
2022-08-30T17:14:29.173Z,1.23
2022-08-30T17:17:09.239Z,1.05
2022-08-30T17:20:11.170Z,1.40
2022-08-30T17:23:02.253Z,1.00
2022-08-30T17:25:50.088Z,1.13
2022-08-30T17:28:26.902Z,0.90
2022-08-30T17:31:05.943Z,0.98
2022-08-30T17:33:45.966Z,1.25
2022-08-30T17:36:25.352Z,1.15
2022-08-30T17:39:24.334Z,1.27
2022-08-30T17:42:01.126Z,1.20
2022-08-30T17:44:48.160Z,1.13
2022-08-30T17:47:31.528Z,1.05
2022-08-30T17:50:11.433Z,1.20
2022-08-30T17:55:40.368Z,1.30
2022-08-30T17:58:17.706Z,1.05
2022-08-30T18:00:56.078Z,1.13
2022-08-30T18:03:25.645Z,1.55
2022-08-30T18:06:16.275Z,1.63
2022-08-30T18:08:49.650Z,1.35
2022-08-30T18:11:27.205Z,1.05
2022-08-30T18:14:10.843Z,1.27
2022-08-30T18:16:49.627Z,1.20
2022-08-30T18:19:27.336Z,1.23
2022-08-30T18:22:03.335Z,1.20
2022-08-30T18:24:45.187Z,1.20
2022-08-30T18:27:39.176Z,1.40
2022-08-30T18:30:34.704Z,1.45
2022-08-30T18:33:14.949Z,1.30
2022-08-30T18:35:49.037Z,1.02
2022-08-30T18:38:28.525Z,1.38
2022-08-30T18:41:11.240Z,1.38
2022-08-30T18:44:17.074Z,1.65
2022-08-30T18:47:00.312Z,1.50
2022-08-30T18:49:36.335Z,1.40
2022-08-30T18:52:15.854Z,1.25
2022-08-30T18:55:06.054Z,1.00
2022-08-30T18:57:37.661Z,1.30
2022-08-30T19:00:22.909Z,1.20
2022-08-30T19:02:52.781Z,1.23
2022-08-30T19:05:24.350Z,1.27
2022-08-30T19:07:58.603Z,1.30
2022-08-30T19:10:42.124Z,1.30
2022-08-30T19:16:25.768Z,1.20
2022-08-30T19:18:55.562Z,1.42
2022-08-30T19:21:27.975Z,1.20
2022-08-30T19:23:59.783Z,1.20
2022-08-30T19:26:34.818Z,1.33
2022-08-30T19:29:09.374Z,1.20
2022-08-30T19:31:41.541Z,1.30
2022-08-30T19:34:20.424Z,1.40
2022-08-30T19:37:05.774Z,1.30
2022-08-30T19:39:40.371Z,1.85
2022-08-30T19:42:10.227Z,2.10
2022-08-30T19:44:42.897Z,1.30
2022-08-30T19:47:24.879Z,1.23
2022-08-30T19:50:06.395Z,1.75
2022-08-30T19:52:39.062Z,1.30
2022-08-30T19:55:10.878Z,1.40
2022-08-30T19:57:56.433Z,1.33
2022-08-30T20:00:31.665Z,1.60
2022-08-30T20:03:15.891Z,1.40
2022-08-30T20:05:45.315Z,1.60
2022-08-30T20:08:14.936Z,1.10
2022-08-30T20:10:46.258Z,1.30
2022-08-30T20:16:04.804Z,2.30
2022-08-30T20:18:45.965Z,4.07
2022-08-30T20:21:21.074Z,2.27
2022-08-30T20:23:54.319Z,1.53
2022-08-30T20:26:30.020Z,1.80
2022-08-30T20:29:04.044Z,1.20
2022-08-30T20:31:42.329Z,1.10
2022-08-30T20:34:17.966Z,1.63
2022-08-30T20:36:49.923Z,1.20
2022-08-30T20:39:22.179Z,1.63
2022-08-30T20:41:53.758Z,1.43
2022-08-30T20:44:23.367Z,1.50
2022-08-30T20:46:54.716Z,1.40
2022-08-30T20:49:25.414Z,1.60
2022-08-30T20:51:57.108Z,1.30
2022-08-30T20:54:29.900Z,1.30
2022-08-30T20:57:02.391Z,1.13
2022-08-30T20:59:36.840Z,1.20
2022-08-30T21:02:09.277Z,1.37
2022-08-30T21:04:57.632Z,1.27
2022-08-30T21:07:27.002Z,1.43
2022-08-30T21:10:02.774Z,1.30
2022-08-30T21:12:34.443Z,1.30
2022-08-30T21:15:27.050Z,1.40
2022-08-30T21:17:57.297Z,1.50
2022-08-30T21:20:28.692Z,1.30
2022-08-30T21:22:59.055Z,1.20
2022-08-30T21:25:33.617Z,1.30
2022-08-30T21:28:05.417Z,1.10
2022-08-30T21:30:49.079Z,1.40
2022-08-30T21:33:18.389Z,1.33
2022-08-30T21:36:10.229Z,1.30
2022-08-30T21:38:44.307Z,1.00
2022-08-30T21:41:15.997Z,1.23
2022-08-30T21:43:45.404Z,1.00
2022-08-30T21:46:22.086Z,1.37
2022-08-30T21:48:56.926Z,1.37
2022-08-30T21:51:27.782Z,1.30
2022-08-30T21:54:02.688Z,1.30
2022-08-30T21:56:32.328Z,1.40
2022-08-30T21:59:02.218Z,1.47
2022-08-30T22:01:35.046Z,1.13
2022-08-30T22:04:12.669Z,1.20
2022-08-30T22:06:48.687Z,1.10
2022-08-30T22:09:23.948Z,1.57
2022-08-30T22:11:55.632Z,1.20
2022-08-30T22:14:26.501Z,1.20
2022-08-30T22:16:56.425Z,1.50
2022-08-30T22:19:26.840Z,1.00
2022-08-30T22:22:02.365Z,1.30
2022-08-30T22:24:33.719Z,1.20
2022-08-30T22:27:04.082Z,1.10
2022-08-30T22:29:35.846Z,1.20
2022-08-30T22:32:08.465Z,0.97
2022-08-30T22:34:41.492Z,1.27
2022-08-30T22:37:14.018Z,1.40
2022-08-30T22:39:47.501Z,1.20
2022-08-30T22:42:16.780Z,1.20
2022-08-30T22:44:46.181Z,1.20
2022-08-30T22:47:15.843Z,1.10
2022-08-30T22:49:45.468Z,1.20
2022-08-30T22:52:22.125Z,1.20
2022-08-30T22:54:55.228Z,1.13
2022-08-30T22:57:26.273Z,0.90
2022-08-30T22:59:58.589Z,0.90
2022-08-30T23:02:30.314Z,1.00
2022-08-30T23:05:04.804Z,1.20
2022-08-30T23:07:39.039Z,1.03
2022-08-30T23:10:14.410Z,1.20
2022-08-30T23:12:46.262Z,1.00
2022-08-30T23:15:16.702Z,1.10
2022-08-30T23:17:46.591Z,1.13
2022-08-30T23:20:15.985Z,0.90
2022-08-30T23:22:47.674Z,1.10
2022-08-30T23:25:35.909Z,1.10
2022-08-30T23:28:28.348Z,1.30
2022-08-30T23:31:14.865Z,0.97
2022-08-30T23:34:01.714Z,1.20
2022-08-30T23:36:51.289Z,1.07
2022-08-30T23:39:39.524Z,1.00
2022-08-30T23:42:25.859Z,1.03
2022-08-30T23:45:12.644Z,0.90
2022-08-30T23:47:59.463Z,0.90
2022-08-30T23:50:46.130Z,0.90
2022-08-30T23:53:32.576Z,1.00
2022-08-30T23:56:25.021Z,1.10
2022-08-30T23:59:14.612Z,0.97
